Date,TemperatureHighF,TemperatureAvgF,TemperatureLowF,DewpointHighF,DewpointAvgF,DewpointLowF,HumidityHigh,HumidityAvg,HumidityLow,PressureMaxIn,PressureMinIn,WindSpeedMaxMPH,WindSpeedAvgMPH,GustSpeedMaxMPH,PrecipitationSumIn
2013-3-1,66.7,57.0,50.9,54.1,48.0,45.1,82,73,56,30.31,30.11,0,0,0,0.00
2013-3-2,67.6,58.0,54.1,54.5,48.2,45.8,75,70,60,30.12,29.96,0,0,0,0.00
2013-3-3,56.3,52.9,49.3,48.2,45.9,43.3,80,77,72,29.98,29.93,0,0,0,0.00
2013-3-4,55.2,50.7,47.8,46.2,43.0,40.2,80,75,66,30.03,29.94,0,0,0,0.00
2013-3-5,58.6,51.5,46.9,44.8,41.8,39.4,79,70,59,29.95,29.72,0,0,0,0.00
2013-3-6,58.5,52.7,49.3,45.9,42.8,39.9,82,69,56,29.94,29.73,0,0,0,0.00
2013-3-7,59.5,51.7,48.0,44.9,41.8,39.4,80,69,55,29.87,29.74,0,0,0,0.00
2013-3-8,53.2,50.5,48.0,43.8,42.3,40.8,80,73,68,29.93,29.71,0,0,0,0.00
2013-3-9,61.5,52.3,46.6,46.9,42.7,39.4,77,70,57,30.18,29.93,0,0,0,0.00
2013-3-10,63.7,53.9,48.4,49.6,43.7,40.4,76,69,48,30.22,30.13,0,0,0,0.00
2013-3-11,62.6,53.6,48.6,51.2,44.7,41.8,79,72,52,30.15,29.99,0,0,0,0.00
2013-3-12,63.7,54.2,49.6,53.1,46.7,43.8,81,76,64,30.04,29.95,0,0,0,0.00
2013-3-13,72.5,56.3,47.7,55.8,48.1,42.2,83,74,56,30.04,29.94,0,0,0,0.00
2013-3-14,60.1,53.7,48.9,50.7,46.1,43.2,82,75,68,30.05,29.96,0,0,0,0.00
2013-3-15,65.8,55.6,50.4,54.5,47.4,43.2,81,74,63,30.01,29.92,0,0,0,0.00
2013-3-16,63.0,54.8,50.2,51.6,46.9,44.0,83,75,60,30.00,29.91,0,0,0,0.00
2013-3-17,59.9,53.9,50.2,45.7,43.4,40.8,74,68,57,30.03,29.93,0,0,0,0.00
2013-3-18,63.0,54.1,49.1,52.2,44.7,41.6,77,71,58,30.01,29.91,0,0,0,0.00
2013-3-19,63.3,55.5,51.3,52.2,44.6,40.4,76,67,53,30.02,29.94,0,0,0,0.00
2013-3-20,60.1,55.9,52.0,53.2,48.2,42.1,84,75,66,30.02,29.94,0,0,0,0.00
2013-3-21,59.7,52.2,46.9,46.6,42.3,39.8,83,69,57,30.01,29.90,0,0,0,0.00
2013-3-22,61.9,54.5,48.9,42.1,38.5,30.9,71,56,35,30.00,29.92,0,0,0,0.00
2013-3-23,63.3,55.1,49.6,42.2,39.6,37.8,67,57,40,30.02,29.93,0,0,0,0.00
2013-3-24,59.5,53.7,49.8,46.9,43.2,40.4,74,68,59,29.97,29.86,0,0,0,0.00
2013-3-25,55.0,51.0,48.2,44.1,42.5,41.2,78,73,65,29.92,29.81,0,0,0,0.00
2013-3-26,58.6,52.6,48.6,47.9,44.2,42.0,79,73,63,29.89,29.82,0,0,0,0.00
2013-3-27,63.3,56.6,51.4,53.3,49.1,44.7,81,76,69,29.90,29.83,0,0,0,0.00
2013-3-28,65.8,59.1,55.6,56.2,51.4,48.6,82,76,65,29.97,29.88,0,0,0,0.00
2013-3-29,69.6,57.7,53.2,59.0,50.2,46.7,82,76,62,29.96,29.90,0,0,0,0.00
2013-3-30,66.7,58.2,53.2,55.2,50.9,47.4,84,77,62,29.96,29.86,0,0,0,0.00
2013-3-31,65.1,58.7,55.8,59.7,53.9,50.0,93,84,70,29.94,29.87,0,0,0,0.00